createdAt,value
2023-03-24T00:02:05.055Z,100.00
2023-03-24T00:04:36.701Z,100.00
2023-03-24T00:07:08.456Z,100.00
2023-03-24T00:09:39.954Z,100.00
2023-03-24T00:12:11.932Z,100.00
2023-03-24T00:14:43.515Z,100.00
2023-03-24T00:17:17.774Z,100.00
2023-03-24T00:19:50.175Z,100.00
2023-03-24T00:22:21.703Z,100.00
2023-03-24T00:24:53.426Z,100.00
2023-03-24T00:27:24.985Z,100.00
2023-03-24T00:29:59.365Z,100.00
2023-03-24T00:32:30.893Z,100.00
2023-03-24T00:35:02.726Z,100.00
2023-03-24T00:37:34.428Z,100.00
2023-03-24T00:40:08.362Z,100.00
2023-03-24T00:42:39.898Z,100.00
2023-03-24T00:45:11.809Z,100.00
2023-03-24T00:47:44.897Z,100.00
2023-03-24T00:50:17.171Z,100.00
2023-03-24T00:52:49.216Z,100.00
2023-03-24T00:55:23.237Z,100.00
2023-03-24T00:57:55.022Z,100.00
2023-03-24T01:00:26.903Z,100.00
2023-03-24T01:02:58.532Z,100.00
2023-03-24T01:05:30.175Z,100.00
2023-03-24T01:08:03.186Z,100.00
2023-03-24T01:10:35.143Z,100.00
2023-03-24T01:13:06.673Z,100.00
2023-03-24T01:15:38.648Z,100.00
2023-03-24T01:18:10.174Z,100.00
2023-03-24T01:20:42.055Z,100.00
2023-03-24T01:23:14.200Z,100.00
2023-03-24T01:25:48.207Z,100.00
2023-03-24T01:28:21.711Z,100.00
2023-03-24T01:30:53.631Z,100.00
2023-03-24T01:33:25.141Z,100.00
2023-03-24T01:35:56.800Z,100.00
2023-03-24T01:38:28.343Z,100.00
2023-03-24T01:40:59.860Z,100.00
2023-03-24T01:43:31.502Z,100.00
2023-03-24T01:46:03.776Z,100.00
2023-03-24T01:48:35.371Z,100.00
2023-03-24T01:51:07.580Z,100.00
2023-03-24T01:53:39.082Z,100.00
2023-03-24T01:56:11.066Z,100.00
2023-03-24T01:58:42.591Z,100.00
2023-03-24T02:01:14.531Z,100.00
2023-03-24T02:03:46.089Z,100.00
2023-03-24T02:06:18.865Z,100.00
2023-03-24T02:08:50.622Z,100.00
2023-03-24T02:11:22.505Z,100.00
2023-03-24T02:13:54.042Z,100.00
2023-03-24T02:16:25.920Z,100.00
2023-03-24T02:18:57.442Z,100.00
2023-03-24T02:21:29.292Z,100.00
2023-03-24T02:24:00.854Z,100.00
2023-03-24T02:26:32.600Z,100.00
2023-03-24T02:29:04.113Z,100.00
2023-03-24T02:31:35.967Z,100.00
2023-03-24T02:34:07.474Z,100.00
2023-03-24T02:36:39.182Z,100.00
2023-03-24T02:39:10.772Z,100.00
2023-03-24T02:41:42.656Z,100.00
2023-03-24T02:44:14.131Z,100.00
2023-03-24T02:46:46.931Z,100.00
2023-03-24T02:49:18.495Z,100.00
2023-03-24T02:51:50.459Z,100.00
2023-03-24T02:54:21.943Z,100.00
2023-03-24T02:56:53.905Z,100.00
2023-03-24T02:59:25.802Z,100.00
2023-03-24T03:01:57.663Z,100.00
2023-03-24T03:04:29.618Z,100.00
2023-03-24T03:07:01.178Z,100.00
2023-03-24T03:09:32.670Z,100.00
2023-03-24T03:12:04.467Z,100.00
2023-03-24T03:14:35.989Z,100.00
2023-03-24T03:17:08.185Z,100.00
2023-03-24T03:19:39.770Z,100.00
2023-03-24T03:22:12.136Z,100.00
2023-03-24T03:24:43.749Z,100.00
2023-03-24T03:27:15.567Z,100.00
2023-03-24T03:29:47.097Z,100.00
2023-03-24T03:32:18.756Z,100.00
2023-03-24T03:34:50.263Z,100.00
2023-03-24T03:37:22.654Z,100.00
2023-03-24T03:39:54.142Z,100.00
2023-03-24T03:42:26.061Z,100.00
2023-03-24T03:44:57.598Z,100.00
2023-03-24T03:47:29.404Z,100.00
2023-03-24T03:50:00.925Z,100.00
2023-03-24T03:52:32.828Z,100.00
2023-03-24T03:55:04.320Z,100.00
2023-03-24T03:57:36.004Z,100.00
2023-03-24T04:00:08.250Z,100.00
2023-03-24T04:02:40.132Z,100.00
2023-03-24T04:05:14.165Z,100.00
2023-03-24T04:07:46.186Z,100.00
2023-03-24T04:10:17.697Z,100.00
2023-03-24T04:12:49.366Z,100.00
2023-03-24T04:15:21.957Z,100.00
2023-03-24T04:17:53.747Z,100.00
2023-03-24T04:20:25.352Z,100.00
2023-03-24T04:22:56.875Z,100.00
2023-03-24T04:25:28.396Z,100.00
2023-03-24T04:28:01.113Z,100.00
2023-03-24T04:30:32.933Z,100.00
2023-03-24T04:33:04.516Z,100.00
2023-03-24T04:35:36.562Z,100.00
2023-03-24T04:38:09.536Z,100.00
2023-03-24T04:40:42.107Z,100.00
2023-03-24T04:43:14.205Z,100.00
2023-03-24T04:45:49.982Z,100.00
2023-03-24T04:48:22.043Z,100.00
2023-03-24T04:50:53.539Z,100.00
2023-03-24T04:53:25.242Z,100.00
2023-03-24T04:55:56.806Z,100.00
2023-03-24T04:58:28.609Z,100.00
2023-03-24T05:01:00.178Z,100.00
2023-03-24T05:03:32.018Z,100.00
2023-03-24T05:06:05.633Z,100.00
2023-03-24T05:08:37.594Z,100.00
2023-03-24T05:11:09.096Z,100.00
2023-03-24T05:13:41.145Z,100.00
2023-03-24T05:16:12.731Z,100.00
2023-03-24T05:18:44.286Z,100.00
2023-03-24T05:21:16.111Z,100.00
2023-03-24T05:23:47.644Z,100.00
2023-03-24T05:26:19.681Z,100.00
2023-03-24T05:28:51.197Z,100.00
2023-03-24T05:31:22.828Z,100.00
2023-03-24T05:33:54.360Z,100.00
2023-03-24T05:36:26.248Z,100.00
2023-03-24T05:38:57.799Z,100.00
2023-03-24T05:41:29.638Z,100.00
2023-03-24T05:44:01.275Z,100.00
2023-03-24T05:46:33.256Z,100.00
2023-03-24T05:49:04.777Z,100.00
2023-03-24T05:51:36.507Z,100.00
2023-03-24T05:54:08.550Z,100.00
2023-03-24T05:56:40.549Z,100.00
2023-03-24T05:59:12.159Z,100.00
2023-03-24T06:01:44.040Z,100.00
2023-03-24T06:04:15.557Z,100.00
2023-03-24T06:06:47.378Z,100.00
2023-03-24T06:09:19.500Z,100.00
2023-03-24T06:11:51.381Z,100.00
2023-03-24T06:14:22.871Z,100.00
2023-03-24T06:16:54.424Z,100.00
2023-03-24T06:19:25.957Z,100.00
2023-03-24T06:22:00.490Z,100.00
2023-03-24T06:24:32.041Z,100.00
2023-03-24T06:27:03.987Z,100.00
2023-03-24T06:29:35.495Z,100.00
2023-03-24T06:32:07.063Z,100.00
2023-03-24T06:34:41.334Z,100.00
2023-03-24T06:37:13.188Z,100.00
2023-03-24T06:39:44.929Z,100.00
2023-03-24T06:42:16.873Z,100.00
2023-03-24T06:44:48.345Z,100.00
2023-03-24T06:47:20.283Z,100.00
2023-03-24T06:49:51.782Z,100.00
2023-03-24T06:52:24.924Z,100.00
2023-03-24T06:54:58.182Z,100.00
2023-03-24T06:57:29.947Z,100.00
2023-03-24T07:00:01.527Z,100.00
2023-03-24T07:02:36.010Z,100.00
2023-03-24T07:05:09.354Z,100.00
2023-03-24T07:10:16.371Z,100.00
2023-03-24T07:12:48.463Z,100.00
2023-03-24T07:15:19.957Z,100.00
2023-03-24T07:17:51.854Z,100.00
2023-03-24T07:20:23.417Z,100.00
2023-03-24T07:22:54.937Z,100.00
2023-03-24T07:25:26.575Z,100.00
2023-03-24T07:27:58.330Z,100.00
2023-03-24T07:30:39.992Z,100.00
2023-03-24T07:33:12.954Z,100.00
2023-03-24T07:35:44.665Z,100.00
2023-03-24T07:38:16.437Z,100.00
2023-03-24T07:40:48.166Z,100.00
2023-03-24T07:43:20.020Z,100.00
2023-03-24T07:45:51.612Z,100.00
2023-03-24T07:48:23.432Z,100.00
2023-03-24T07:50:54.998Z,100.00
2023-03-24T07:53:26.916Z,100.00
2023-03-24T07:55:58.501Z,100.00
2023-03-24T07:58:30.262Z,100.00
2023-03-24T08:01:01.760Z,100.00
2023-03-24T08:03:34.297Z,100.00
2023-03-24T08:06:05.853Z,100.00
2023-03-24T08:08:37.671Z,100.00
2023-03-24T08:11:09.207Z,100.00
2023-03-24T08:13:41.114Z,100.00
2023-03-24T08:16:12.739Z,100.00
2023-03-24T08:18:44.446Z,100.00
2023-03-24T08:21:15.983Z,100.00
2023-03-24T08:23:47.853Z,100.00
2023-03-24T08:26:19.336Z,100.00
2023-03-24T08:28:50.855Z,100.00
2023-03-24T08:31:22.438Z,100.00
2023-03-24T08:33:53.992Z,100.00
2023-03-24T08:36:26.579Z,100.00
2023-03-24T08:38:58.269Z,100.00
2023-03-24T08:41:35.012Z,100.00
2023-03-24T08:44:07.831Z,100.00
2023-03-24T08:46:39.404Z,100.00
2023-03-24T08:49:11.227Z,100.00
2023-03-24T08:51:42.697Z,100.00
2023-03-24T08:54:14.565Z,100.00
2023-03-24T08:56:46.127Z,100.00
2023-03-24T08:59:18.005Z,100.00
2023-03-24T09:01:49.563Z,100.00
2023-03-24T09:04:22.117Z,100.00
2023-03-24T09:07:01.660Z,100.00
2023-03-24T09:09:34.945Z,100.00
2023-03-24T09:12:06.421Z,100.00
2023-03-24T09:14:38.260Z,100.00
2023-03-24T09:17:09.729Z,100.00
2023-03-24T09:19:41.558Z,100.00
2023-03-24T09:22:13.045Z,100.00
2023-03-24T09:24:45.188Z,100.00
2023-03-24T09:27:16.666Z,100.00
2023-03-24T09:29:48.497Z,100.00
2023-03-24T09:32:19.972Z,100.00
2023-03-24T09:34:51.811Z,100.00
2023-03-24T09:37:23.322Z,100.00
2023-03-24T09:39:55.069Z,100.00
2023-03-24T09:42:26.564Z,100.00
2023-03-24T09:44:58.189Z,98.87
2023-03-24T09:47:30.083Z,98.44
2023-03-24T09:50:01.596Z,99.06
2023-03-24T09:52:33.395Z,100.00
2023-03-24T09:55:04.986Z,100.00
2023-03-24T09:57:36.932Z,100.00
2023-03-24T10:00:08.405Z,100.00
2023-03-24T10:02:40.294Z,100.00
2023-03-24T10:05:11.847Z,100.00
2023-03-24T10:07:43.758Z,100.00
2023-03-24T10:10:15.264Z,100.00
2023-03-24T10:12:47.084Z,100.00
2023-03-24T10:15:34.642Z,100.00
2023-03-24T10:18:09.360Z,100.00
2023-03-24T10:20:40.837Z,100.00
2023-03-24T10:23:12.644Z,100.00
2023-03-24T10:25:44.153Z,100.00
2023-03-24T10:28:15.777Z,100.00
2023-03-24T10:30:48.322Z,99.33
2023-03-24T10:33:21.291Z,94.56
2023-03-24T10:35:52.834Z,90.80
2023-03-24T10:38:24.762Z,88.32
2023-03-24T10:40:56.246Z,87.60
2023-03-24T10:43:28.513Z,85.37
2023-03-24T10:46:00.202Z,87.12
2023-03-24T10:48:31.798Z,85.43
2023-03-24T10:51:03.487Z,85.72
2023-03-24T10:53:35.344Z,88.40
2023-03-24T10:56:06.869Z,88.47
2023-03-24T10:58:38.827Z,89.46
2023-03-24T11:01:10.404Z,88.76
2023-03-24T11:03:43.101Z,88.48
2023-03-24T11:06:14.638Z,87.21
2023-03-24T11:08:46.294Z,86.85
2023-03-24T11:11:17.810Z,85.83
2023-03-24T11:13:49.501Z,84.24
2023-03-24T11:16:21.395Z,83.76
2023-03-24T11:18:52.907Z,78.78
2023-03-24T11:21:24.440Z,78.64
2023-03-24T11:23:55.977Z,77.32
2023-03-24T11:26:27.488Z,73.39
2023-03-24T11:28:59.093Z,74.38
2023-03-24T11:31:30.840Z,73.50
2023-03-24T11:34:03.090Z,73.51
2023-03-24T11:36:34.708Z,72.06
2023-03-24T11:39:06.609Z,69.40
2023-03-24T11:41:38.125Z,68.03
2023-03-24T11:44:09.887Z,68.61
2023-03-24T11:46:41.444Z,69.56
2023-03-24T11:49:13.123Z,69.87
2023-03-24T11:51:44.845Z,69.26
2023-03-24T11:54:16.647Z,68.30
2023-03-24T11:56:48.163Z,69.14
2023-03-24T11:59:19.855Z,71.72
2023-03-24T12:01:51.355Z,72.61
2023-03-24T12:04:23.161Z,71.98
2023-03-24T12:06:55.520Z,71.75
2023-03-24T12:09:27.782Z,73.35
2023-03-24T12:11:59.261Z,73.37
2023-03-24T12:14:31.011Z,72.03
2023-03-24T12:17:03.660Z,73.91
2023-03-24T12:19:35.802Z,72.71
2023-03-24T12:22:07.353Z,74.00
2023-03-24T12:24:39.228Z,74.54
2023-03-24T12:27:10.845Z,71.52
2023-03-24T12:29:43.081Z,71.35
2023-03-24T12:32:14.675Z,71.87
2023-03-24T12:34:46.434Z,73.61
2023-03-24T12:37:17.939Z,75.19
2023-03-24T12:39:49.711Z,74.97
2023-03-24T12:42:21.255Z,74.69
2023-03-24T12:44:53.119Z,76.25
2023-03-24T12:47:24.957Z,76.25
2023-03-24T12:49:56.539Z,75.11
2023-03-24T12:52:28.136Z,74.63
2023-03-24T12:55:05.110Z,72.78
2023-03-24T12:57:36.739Z,72.50
2023-03-24T13:00:11.658Z,72.12
2023-03-24T13:02:43.319Z,74.58
2023-03-24T13:05:17.051Z,75.17
2023-03-24T13:07:53.808Z,74.55
2023-03-24T13:10:25.900Z,73.73
2023-03-24T13:12:57.460Z,72.40
2023-03-24T13:15:29.266Z,72.00
2023-03-24T13:18:00.841Z,72.81
2023-03-24T13:20:32.708Z,72.11
2023-03-24T13:23:04.192Z,71.26
2023-03-24T13:25:38.465Z,69.70
2023-03-24T13:28:09.959Z,69.41
2023-03-24T13:30:41.804Z,69.76
2023-03-24T13:33:13.371Z,69.71
2023-03-24T13:35:45.257Z,69.03
2023-03-24T13:38:17.872Z,70.03
2023-03-24T13:40:50.707Z,71.08
2023-03-24T13:43:22.217Z,69.78
2023-03-24T13:45:53.913Z,70.14
2023-03-24T13:48:25.759Z,69.25
2023-03-24T13:50:57.270Z,69.47
2023-03-24T13:53:28.741Z,70.57
2023-03-24T13:56:01.277Z,69.55
2023-03-24T13:58:32.854Z,65.66
2023-03-24T14:01:04.602Z,66.01
2023-03-24T14:03:36.719Z,64.80
2023-03-24T14:06:09.496Z,63.46
2023-03-24T14:08:41.532Z,63.18
2023-03-24T14:11:13.029Z,61.53
2023-03-24T14:13:44.941Z,60.00
2023-03-24T14:16:16.436Z,59.03
2023-03-24T14:18:48.059Z,58.91
2023-03-24T14:21:19.591Z,58.23
2023-03-24T14:23:53.416Z,57.45
2023-03-24T14:26:25.026Z,58.40
2023-03-24T14:28:56.535Z,57.95
2023-03-24T14:31:29.074Z,58.00
2023-03-24T14:34:05.756Z,58.26
2023-03-24T14:36:40.468Z,57.99
2023-03-24T14:39:12.388Z,56.62
2023-03-24T14:41:44.283Z,55.10
2023-03-24T14:44:16.175Z,55.09
2023-03-24T14:46:48.098Z,55.63
2023-03-24T14:49:20.206Z,56.53
2023-03-24T14:51:51.784Z,55.77
2023-03-24T14:54:23.594Z,55.55
2023-03-24T14:56:55.333Z,54.84
2023-03-24T14:59:27.271Z,55.10
2023-03-24T15:01:59.383Z,55.23
2023-03-24T15:04:33.611Z,54.98
2023-03-24T15:07:06.301Z,53.57
2023-03-24T15:09:40.901Z,53.02
2023-03-24T15:12:12.414Z,52.87
2023-03-24T15:14:44.219Z,53.43
2023-03-24T15:17:15.758Z,53.45
2023-03-24T15:19:47.563Z,52.55
2023-03-24T15:22:19.235Z,51.71
2023-03-24T15:24:51.191Z,50.46
2023-03-24T15:27:22.722Z,52.02
2023-03-24T15:29:54.261Z,52.54
2023-03-24T15:32:27.354Z,51.93
2023-03-24T15:34:59.211Z,51.27
2023-03-24T15:37:30.988Z,52.76
2023-03-24T15:40:15.352Z,54.26
2023-03-24T15:42:47.394Z,52.58
2023-03-24T15:45:19.250Z,52.17
2023-03-24T15:47:50.929Z,53.76
2023-03-24T15:50:22.538Z,54.04
2023-03-24T15:52:54.047Z,54.40
2023-03-24T15:55:26.507Z,54.63
2023-03-24T15:57:58.041Z,54.72
2023-03-24T16:00:29.560Z,54.76
2023-03-24T16:03:01.189Z,54.93
2023-03-24T16:05:32.770Z,55.80
2023-03-24T16:08:05.798Z,55.64
2023-03-24T16:10:40.719Z,55.11
2023-03-24T16:13:12.566Z,55.58
2023-03-24T16:15:44.481Z,56.07
2023-03-24T16:18:16.115Z,56.48
2023-03-24T16:20:48.391Z,56.30
2023-03-24T16:23:20.133Z,56.51
2023-03-24T16:25:51.905Z,57.87
2023-03-24T16:28:24.763Z,57.67
2023-03-24T16:30:57.094Z,58.04
2023-03-24T16:33:30.324Z,58.18
2023-03-24T16:36:01.986Z,58.54
2023-03-24T16:38:34.164Z,59.05
2023-03-24T16:41:05.938Z,59.57
2023-03-24T16:43:37.416Z,59.82
2023-03-24T16:46:09.663Z,60.18
2023-03-24T16:48:41.506Z,59.16
2023-03-24T16:51:13.780Z,59.84
2023-03-24T16:53:45.254Z,59.90
2023-03-24T16:56:16.807Z,61.46
2023-03-24T16:58:48.580Z,61.65
2023-03-24T17:01:29.678Z,62.29
2023-03-24T17:04:01.269Z,62.85
2023-03-24T17:06:33.127Z,63.52
2023-03-24T17:09:05.961Z,64.14
2023-03-24T17:11:37.786Z,63.72
2023-03-24T17:14:12.191Z,63.82
2023-03-24T17:16:45.053Z,65.10
2023-03-24T17:19:16.610Z,64.76
2023-03-24T17:21:48.492Z,66.11
2023-03-24T17:24:19.997Z,66.59
2023-03-24T17:26:51.510Z,67.66
2023-03-24T17:29:23.444Z,68.30
2023-03-24T17:31:55.012Z,69.02
2023-03-24T17:34:26.495Z,68.67
2023-03-24T17:36:57.985Z,69.63
2023-03-24T17:39:29.564Z,70.42
2023-03-24T17:42:01.453Z,70.16
2023-03-24T17:44:32.966Z,70.83
2023-03-24T17:47:04.585Z,71.43
2023-03-24T17:49:37.375Z,72.24
2023-03-24T17:52:09.318Z,72.38
2023-03-24T17:54:40.951Z,72.43
2023-03-24T17:57:12.880Z,73.61
2023-03-24T17:59:44.434Z,73.07
2023-03-24T18:02:18.059Z,74.00
2023-03-24T18:04:49.851Z,73.76
2023-03-24T18:07:21.381Z,74.51
2023-03-24T18:09:53.210Z,75.54
2023-03-24T18:12:24.702Z,75.89
2023-03-24T18:14:56.196Z,75.84
2023-03-24T18:17:27.754Z,77.14
2023-03-24T18:20:08.671Z,76.09
2023-03-24T18:22:40.996Z,76.42
2023-03-24T18:25:13.849Z,76.97
2023-03-24T18:27:45.517Z,78.09
2023-03-24T18:30:17.432Z,78.27
2023-03-24T18:32:49.086Z,79.08
2023-03-24T18:35:20.982Z,79.43
2023-03-24T18:37:52.744Z,80.13
2023-03-24T18:40:24.274Z,80.11
2023-03-24T18:42:55.797Z,81.00
2023-03-24T18:45:27.655Z,81.39
2023-03-24T18:47:59.221Z,81.66
2023-03-24T18:50:30.894Z,82.10
2023-03-24T18:53:02.412Z,83.51
2023-03-24T18:55:33.950Z,83.99
2023-03-24T18:58:05.476Z,85.39
2023-03-24T19:00:36.998Z,86.83
2023-03-24T19:03:08.603Z,89.06
2023-03-24T19:05:40.763Z,90.10
2023-03-24T19:08:14.988Z,91.46
2023-03-24T19:10:46.700Z,92.73
2023-03-24T19:13:18.312Z,94.04
2023-03-24T19:15:55.069Z,95.51
2023-03-24T19:18:26.848Z,96.39
2023-03-24T19:20:58.700Z,97.28
2023-03-24T19:23:30.278Z,97.70
2023-03-24T19:26:02.310Z,97.42
2023-03-24T19:28:35.563Z,97.39
2023-03-24T19:31:09.187Z,97.80
2023-03-24T19:33:40.754Z,99.22
2023-03-24T19:36:12.527Z,93.65
2023-03-24T19:38:44.352Z,90.04
2023-03-24T19:41:16.266Z,91.44
2023-03-24T19:43:47.823Z,90.67
2023-03-24T19:46:22.528Z,89.17
2023-03-24T19:48:54.139Z,89.92
2023-03-24T19:51:25.691Z,88.61
2023-03-24T19:53:57.190Z,88.13
2023-03-24T19:56:28.818Z,87.61
2023-03-24T19:59:00.482Z,88.20
2023-03-24T20:01:35.850Z,88.16
2023-03-24T20:04:07.522Z,88.01
2023-03-24T20:06:39.346Z,87.72
2023-03-24T20:09:10.937Z,87.96
2023-03-24T20:11:42.949Z,87.78
2023-03-24T20:14:16.802Z,86.93
2023-03-24T20:16:48.627Z,86.59
2023-03-24T20:19:20.403Z,86.66
2023-03-24T20:21:52.260Z,86.31
2023-03-24T20:24:23.790Z,85.32
2023-03-24T20:26:55.490Z,85.10
2023-03-24T20:29:27.014Z,85.68
2023-03-24T20:31:58.885Z,85.58
2023-03-24T20:34:30.611Z,86.06
2023-03-24T20:37:02.486Z,87.06
2023-03-24T20:39:34.085Z,87.51
2023-03-24T20:42:06.353Z,87.42
2023-03-24T20:44:37.874Z,87.27
2023-03-24T20:47:09.527Z,88.03
2023-03-24T20:49:41.331Z,87.62
2023-03-24T20:52:14.670Z,88.54
2023-03-24T20:54:46.191Z,89.29
2023-03-24T20:57:18.018Z,89.56
2023-03-24T20:59:49.592Z,89.95
2023-03-24T21:02:21.381Z,90.67
2023-03-24T21:04:52.899Z,91.09
2023-03-24T21:07:24.712Z,90.76
2023-03-24T21:09:56.278Z,91.17
2023-03-24T21:12:27.817Z,91.48
2023-03-24T21:14:59.334Z,91.90
2023-03-24T21:17:34.193Z,92.69
2023-03-24T21:20:13.458Z,92.90
2023-03-24T21:22:53.750Z,92.75
2023-03-24T21:25:25.250Z,92.36
2023-03-24T21:27:57.303Z,93.40
2023-03-24T21:30:28.856Z,93.37
2023-03-24T21:33:01.369Z,92.75
2023-03-24T21:35:32.993Z,93.80
2023-03-24T21:38:05.730Z,93.20
2023-03-24T21:40:37.320Z,93.18
2023-03-24T21:43:09.195Z,94.55
2023-03-24T21:45:40.750Z,94.09
2023-03-24T21:48:14.401Z,94.81
2023-03-24T21:50:46.146Z,94.90
2023-03-24T21:53:18.031Z,95.70
2023-03-24T21:55:50.047Z,95.71
2023-03-24T21:58:22.099Z,96.61
2023-03-24T22:00:53.623Z,97.36
2023-03-24T22:03:25.760Z,97.93
2023-03-24T22:05:57.337Z,98.61
2023-03-24T22:08:30.494Z,98.90
2023-03-24T22:11:04.179Z,100.00
2023-03-24T22:13:37.397Z,100.00
2023-03-24T22:16:08.939Z,100.00
2023-03-24T22:18:41.231Z,100.00
2023-03-24T22:21:12.783Z,100.00
2023-03-24T22:23:44.950Z,100.00
2023-03-24T22:26:17.011Z,100.00
2023-03-24T22:28:48.652Z,100.00
2023-03-24T22:31:23.036Z,100.00
2023-03-24T22:33:54.743Z,100.00
2023-03-24T22:36:26.243Z,100.00
2023-03-24T22:38:57.831Z,100.00
2023-03-24T22:41:29.344Z,100.00
2023-03-24T22:44:01.042Z,100.00
2023-03-24T22:46:32.575Z,100.00
2023-03-24T22:49:04.179Z,100.00
2023-03-24T22:51:35.761Z,100.00
2023-03-24T22:54:07.560Z,100.00
2023-03-24T22:56:39.070Z,100.00
2023-03-24T22:59:10.602Z,100.00
2023-03-24T23:01:42.178Z,100.00
2023-03-24T23:04:14.064Z,100.00
2023-03-24T23:06:46.785Z,100.00
2023-03-24T23:09:18.312Z,100.00
2023-03-24T23:11:49.956Z,100.00
2023-03-24T23:14:21.522Z,100.00
2023-03-24T23:16:54.291Z,100.00
2023-03-24T23:19:26.067Z,100.00
2023-03-24T23:21:58.706Z,100.00
2023-03-24T23:24:31.517Z,100.00
2023-03-24T23:27:04.593Z,100.00
2023-03-24T23:29:36.439Z,100.00
2023-03-24T23:32:07.941Z,100.00
2023-03-24T23:34:43.031Z,100.00
2023-03-24T23:37:14.652Z,100.00
2023-03-24T23:39:50.532Z,100.00
2023-03-24T23:42:22.022Z,100.00
2023-03-24T23:44:53.765Z,100.00
2023-03-24T23:47:25.284Z,100.00
2023-03-24T23:49:57.143Z,100.00
2023-03-24T23:52:28.652Z,100.00
2023-03-24T23:55:02.261Z,100.00
2023-03-24T23:57:34.114Z,100.00
